Time;durP1;ratioP1;P1;durP2;ratioP2;P2;SDS_P1;SDS_P2;PMS_P1;PMS_P2;Temp;Humidity;BMP_temperature;BMP_pressure;BME280_temperature;BME280_humidity;BME280_pressure;Samples;Min_cycle;Max_cycle;Signal;HPM_P1;HPM_P2
2023/10/28 00:01:45;;;;;;;21.98;6.57;;;19.70;99.90;;;;;;4881256;29;20033;-85
2023/10/28 00:04:11;;;;;;;21.98;6.18;;;19.70;99.90;;;;;;4881032;29;20041;-84
2023/10/28 00:06:39;;;;;;;11.52;6.03;;;19.80;99.90;;;;;;4870458;29;20078;-84
2023/10/28 00:09:05;;;;;;;13.43;5.93;;;19.80;99.90;;;;;;4882640;29;20361;-84
2023/10/28 00:11:32;;;;;;;19.50;6.63;;;19.90;99.90;;;;;;4882528;29;20116;-85
2023/10/28 00:13:58;;;;;;;11.82;5.57;;;19.90;99.90;;;;;;4881229;29;20025;-85
2023/10/28 00:16:25;;;;;;;24.42;6.95;;;20.00;99.90;;;;;;4872405;29;20036;-85
2023/10/28 00:18:51;;;;;;;12.50;5.68;;;20.00;99.90;;;;;;4878611;29;20104;-84
2023/10/28 00:21:18;;;;;;;27.27;6.22;;;20.00;99.90;;;;;;4896161;29;20376;-85
2023/10/28 00:23:45;;;;;;;20.80;6.13;;;20.00;99.90;;;;;;4880971;29;20107;-84
2023/10/28 00:26:11;;;;;;;16.83;6.00;;;20.00;99.90;;;;;;4881974;29;20025;-85
2023/10/28 00:28:40;;;;;;;17.92;6.82;;;20.10;99.90;;;;;;4865483;29;20039;-85
2023/10/28 00:31:07;;;;;;;18.95;6.38;;;20.20;99.90;;;;;;4850595;29;20133;-84
2023/10/28 00:33:34;;;;;;;16.30;7.05;;;20.20;99.90;;;;;;4880672;29;20517;-85
2023/10/28 00:36:07;;;;;;;17.02;6.95;;;20.20;99.90;;;;;;4880478;29;20547;-85
2023/10/28 00:38:34;;;;;;;23.30;7.20;;;20.30;99.90;;;;;;4870625;29;20108;-84
2023/10/28 00:41:01;;;;;;;17.25;7.00;;;20.30;99.90;;;;;;4880560;29;20476;-85
2023/10/28 00:43:28;;;;;;;20.40;7.20;;;20.30;99.90;;;;;;4880223;29;20048;-84
2023/10/28 00:45:56;;;;;;;19.58;6.82;;;20.30;99.90;;;;;;4879967;29;20028;-85
2023/10/28 00:48:23;;;;;;;19.88;7.65;;;20.30;99.90;;;;;;4896400;29;20363;-85
2023/10/28 00:50:50;;;;;;;21.23;7.72;;;20.20;99.90;;;;;;4896339;29;20024;-85
2023/10/28 00:53:17;;;;;;;14.45;6.78;;;20.10;99.90;;;;;;4880353;29;20112;-85
2023/10/28 00:55:44;;;;;;;14.60;6.72;;;19.90;99.90;;;;;;4880631;29;20033;-85
2023/10/28 00:58:16;;;;;;;22.42;7.82;;;19.80;99.90;;;;;;4864929;29;20041;-85
2023/10/28 01:00:44;;;;;;;20.73;6.88;;;19.60;99.90;;;;;;4881604;29;20073;-85
2023/10/28 01:03:10;;;;;;;18.30;6.55;;;19.60;99.90;;;;;;4880285;29;20104;-84
2023/10/28 01:05:40;;;;;;;17.92;5.85;;;19.60;99.90;;;;;;4880406;29;20029;-85
2023/10/28 01:08:09;;;;;;;13.77;6.13;;;19.50;99.90;;;;;;4880547;29;20033;-85
2023/10/28 01:10:36;;;;;;;20.38;6.20;;;19.50;99.90;;;;;;4879869;29;20543;-84
2023/10/28 01:13:06;;;;;;;15.32;6.80;;;19.40;99.90;;;;;;4879962;29;20033;-84
2023/10/28 01:15:33;;;;;;;21.25;6.78;;;19.30;99.90;;;;;;4878498;29;20487;-84
2023/10/28 01:17:59;;;;;;;25.33;7.13;;;19.30;99.90;;;;;;4864340;29;20033;-84
2023/10/28 01:20:26;;;;;;;18.77;6.70;;;19.20;99.90;;;;;;4864545;29;20052;-85
2023/10/28 01:22:52;;;;;;;22.85;6.50;;;19.10;99.90;;;;;;4867864;29;20044;-85
2023/10/28 01:25:19;;;;;;;14.68;6.57;;;19.10;99.90;;;;;;4902005;29;20038;-85
2023/10/28 01:27:46;;;;;;;21.70;6.97;;;19.00;99.90;;;;;;4901656;29;20032;-84
2023/10/28 01:30:13;;;;;;;24.10;6.32;;;19.00;99.90;;;;;;4901830;29;20032;-84
2023/10/28 01:32:41;;;;;;;24.67;6.22;;;18.90;99.90;;;;;;4917759;29;20030;-85
2023/10/28 01:35:09;;;;;;;26.05;6.13;;;19.00;99.90;;;;;;4908680;29;20380;-85
2023/10/28 01:37:39;;;;;;;23.05;6.05;;;18.90;99.90;;;;;;4886130;29;20401;-84
2023/10/28 01:40:28;;;;;;;17.08;6.18;;;19.00;99.90;;;;;;4918810;29;20036;-84
2023/10/28 01:42:54;;;;;;;23.23;7.53;;;18.90;99.90;;;;;;4901381;29;20048;-84
2023/10/28 01:45:21;;;;;;;34.33;9.25;;;18.90;99.90;;;;;;4899075;29;20055;-84
2023/10/28 01:47:52;;;;;;;17.45;6.03;;;18.80;99.90;;;;;;4899600;29;20066;-84
2023/10/28 01:50:21;;;;;;;22.00;6.72;;;18.80;99.90;;;;;;4882712;29;20033;-84
2023/10/28 01:52:48;;;;;;;21.05;5.65;;;18.80;99.90;;;;;;4899210;29;20033;-84
2023/10/28 01:55:14;;;;;;;18.58;6.22;;;18.80;99.90;;;;;;4898728;29;20083;-84
2023/10/28 01:57:41;;;;;;;26.25;7.68;;;18.90;99.90;;;;;;4884744;29;20449;-84
2023/10/28 02:00:12;;;;;;;28.63;7.03;;;18.90;99.90;;;;;;4885362;29;20520;-84
2023/10/28 02:02:39;;;;;;;21.00;6.43;;;18.90;99.90;;;;;;4900780;29;20099;-84
2023/10/28 02:05:06;;;;;;;23.55;5.88;;;18.90;99.90;;;;;;4900806;29;20024;-85
2023/10/28 02:07:38;;;;;;;23.45;6.20;;;19.00;99.90;;;;;;4885113;29;20413;-84
2023/10/28 02:10:06;;;;;;;19.85;5.80;;;19.00;99.90;;;;;;4900736;29;20036;-84
2023/10/28 02:12:36;;;;;;;21.42;5.63;;;19.10;99.90;;;;;;4916797;29;20099;-84
2023/10/28 02:15:08;;;;;;;16.85;6.07;;;19.10;99.90;;;;;;4885514;29;20438;-84
2023/10/28 02:17:36;;;;;;;23.52;6.43;;;19.10;99.90;;;;;;4882534;29;20040;-84
2023/10/28 02:20:04;;;;;;;18.02;6.18;;;19.10;99.90;;;;;;4882335;29;20029;-84
2023/10/28 02:22:31;;;;;;;18.65;7.22;;;18.90;99.90;;;;;;4886181;29;20461;-84
2023/10/28 02:24:58;;;;;;;12.32;6.18;;;18.80;99.90;;;;;;4878619;29;20052;-83
2023/10/28 02:27:25;;;;;;;18.90;6.18;;;18.70;99.90;;;;;;4893592;29;20085;-84
2023/10/28 02:29:51;;;;;;;25.80;7.25;;;18.60;99.90;;;;;;4878525;29;20025;-84
2023/10/28 02:32:18;;;;;;;18.00;7.47;;;18.60;99.90;;;;;;4879263;29;20029;-85
2023/10/28 02:34:44;;;;;;;23.73;7.30;;;18.60;99.90;;;;;;4879005;29;20052;-85
2023/10/28 02:37:11;;;;;;;21.95;6.13;;;18.60;99.90;;;;;;4878509;29;20475;-84
2023/10/28 02:39:37;;;;;;;25.00;6.32;;;18.50;99.90;;;;;;4879020;29;20049;-84
2023/10/28 02:42:04;;;;;;;21.58;7.40;;;18.50;99.90;;;;;;4878924;29;20116;-84
2023/10/28 02:44:30;;;;;;;30.05;7.43;;;18.50;99.90;;;;;;4880005;29;20081;-85
2023/10/28 02:46:58;;;;;;;20.20;6.75;;;18.40;99.90;;;;;;4883590;29;20035;-84
2023/10/28 02:49:25;;;;;;;23.65;7.13;;;18.40;99.90;;;;;;4863652;29;20033;-84
2023/10/28 02:51:52;;;;;;;23.55;6.55;;;18.30;99.90;;;;;;4878691;29;20372;-84
2023/10/28 02:54:19;;;;;;;25.23;7.05;;;18.20;99.90;;;;;;4879603;29;20027;-84
2023/10/28 02:56:45;;;;;;;18.45;6.65;;;18.20;99.90;;;;;;4881662;29;20033;-84
2023/10/28 02:59:13;;;;;;;16.92;6.35;;;18.10;99.90;;;;;;4859755;29;20021;-84
2023/10/28 03:01:40;;;;;;;20.48;6.07;;;18.10;99.90;;;;;;4859713;29;20041;-85
2023/10/28 03:04:08;;;;;;;14.57;6.55;;;18.00;99.90;;;;;;4859452;29;20128;-84
2023/10/28 03:06:35;;;;;;;18.25;6.03;;;18.00;99.90;;;;;;4871507;29;20395;-88
2023/10/28 03:09:02;;;;;;;19.92;6.43;;;17.90;99.90;;;;;;4888400;29;20033;-90
2023/10/28 03:11:29;;;;;;;20.70;6.10;;;17.90;99.90;;;;;;4904919;29;20028;-90
2023/10/28 03:13:55;;;;;;;19.45;5.40;;;17.90;99.90;;;;;;4890882;29;20029;-89
2023/10/28 03:16:24;;;;;;;29.80;5.60;;;18.00;99.90;;;;;;4906135;29;20029;-90
2023/10/28 03:18:52;;;;;;;18.83;6.82;;;18.00;99.90;;;;;;4874091;29;20037;-91
2023/10/28 03:21:19;;;;;;;21.63;5.85;;;18.00;99.90;;;;;;4889482;29;20036;-91
2023/10/28 03:23:46;;;;;;;15.10;5.93;;;18.10;99.90;;;;;;4906465;29;20049;-91
2023/10/28 03:26:12;;;;;;;19.10;6.03;;;18.00;99.90;;;;;;4893579;29;20395;-90
2023/10/28 03:28:39;;;;;;;20.70;6.40;;;18.10;99.90;;;;;;4907984;29;20033;-90
2023/10/28 03:31:13;;;;;;;21.17;5.47;;;18.10;99.90;;;;;;4889685;29;20055;-91
2023/10/28 03:33:40;;;;;;;17.08;5.85;;;17.90;99.90;;;;;;4888213;29;20073;-90
2023/10/28 03:36:10;;;;;;;17.33;5.85;;;17.80;99.90;;;;;;4883887;29;20026;-90
2023/10/28 03:38:37;;;;;;;14.48;5.60;;;17.70;99.90;;;;;;4883235;29;20124;-89
2023/10/28 03:41:12;;;;;;;20.05;5.25;;;17.70;99.90;;;;;;4883528;29;20034;-89
2023/10/28 03:43:38;;;;;;;;;;;17.70;99.90;;;;;;4883239;29;20496;-91
2023/10/28 03:46:05;;;;;;;14.45;5.65;;;17.70;99.90;;;;;;4898567;29;19908;-90
2023/10/28 03:48:33;;;;;;;19.98;5.80;;;17.80;99.90;;;;;;4882776;29;20496;-89
2023/10/28 03:51:01;;;;;;;25.17;5.93;;;17.90;99.90;;;;;;4883250;29;20030;-91
2023/10/28 03:53:28;;;;;;;19.83;5.25;;;17.90;99.90;;;;;;4867021;29;20124;-90
2023/10/28 03:55:55;;;;;;;18.65;5.13;;;17.90;99.90;;;;;;4882429;29;20026;-90
2023/10/28 03:58:22;;;;;;;24.38;6.35;;;17.90;99.90;;;;;;4883178;29;20037;-92
2023/10/28 04:00:53;;;;;;;19.95;5.38;;;18.00;99.90;;;;;;4883156;29;20101;-89
2023/10/28 04:03:21;;;;;;;18.02;5.00;;;18.00;99.90;;;;;;4882394;29;20042;-91
2023/10/28 04:05:48;;;;;;;12.90;4.90;;;18.00;99.90;;;;;;4885976;29;20052;-88
2023/10/28 04:08:15;;;;;;;18.83;4.32;;;17.90;99.90;;;;;;4887990;29;20093;-91
2023/10/28 04:10:41;;;;;;;17.42;5.30;;;17.90;99.90;;;;;;4901387;29;20032;-90
2023/10/28 04:13:08;;;;;;;18.92;5.50;;;17.80;99.90;;;;;;4885356;29;20033;-91
2023/10/28 04:15:38;;;;;;;17.95;4.88;;;17.80;99.90;;;;;;4901044;29;20060;-89
2023/10/28 04:18:04;;;;;;;16.20;4.88;;;17.80;99.90;;;;;;4901097;29;20029;-90
2023/10/28 04:20:31;;;;;;;17.77;5.07;;;17.80;99.90;;;;;;4881260;29;20036;-89
2023/10/28 04:22:57;;;;;;;13.20;4.95;;;17.80;99.90;;;;;;4897032;29;20045;-90
2023/10/28 04:25:24;;;;;;;12.32;5.13;;;17.80;99.90;;;;;;4881791;29;20177;-91
2023/10/28 04:27:50;;;;;;;18.50;5.18;;;17.70;99.90;;;;;;4866499;29;20510;-91
2023/10/28 04:30:18;;;;;;;25.48;5.50;;;17.70;99.90;;;;;;4897300;29;20035;-85
2023/10/28 04:32:45;;;;;;;14.77;5.85;;;17.60;99.90;;;;;;4881023;29;20518;-85
2023/10/28 04:35:11;;;;;;;19.17;5.50;;;17.60;99.90;;;;;;4897132;29;20373;-86
2023/10/28 04:37:38;;;;;;;18.73;5.38;;;17.70;99.90;;;;;;4881652;29;20029;-87
2023/10/28 04:40:05;;;;;;;16.50;4.82;;;17.60;99.90;;;;;;4897983;29;20029;-87
2023/10/28 04:42:32;;;;;;;20.02;5.05;;;17.60;99.90;;;;;;4897702;29;20035;-87
2023/10/28 04:44:58;;;;;;;16.08;5.63;;;17.60;99.90;;;;;;4897536;29;20041;-87
2023/10/28 04:47:25;;;;;;;18.42;5.25;;;17.60;99.90;;;;;;4897423;29;20052;-87
2023/10/28 04:49:51;;;;;;;14.32;5.32;;;17.60;99.90;;;;;;4897486;29;20029;-87
2023/10/28 04:52:20;;;;;;;11.82;5.07;;;17.60;99.90;;;;;;4897484;29;20037;-87
2023/10/28 04:54:47;;;;;;;18.08;5.68;;;17.60;99.90;;;;;;4897346;29;20032;-86
2023/10/28 04:57:13;;;;;;;18.23;4.95;;;17.60;99.90;;;;;;4886063;29;20048;-87
2023/10/28 04:59:39;;;;;;;19.80;5.63;;;17.50;99.90;;;;;;4881776;29;20029;-88
2023/10/28 05:02:06;;;;;;;12.63;4.82;;;17.40;99.90;;;;;;4897055;29;20044;-87
2023/10/28 05:04:33;;;;;;;18.48;5.05;;;17.40;99.90;;;;;;4881107;29;20033;-87
2023/10/28 05:07:01;;;;;;;20.80;5.47;;;17.40;99.90;;;;;;4884395;29;20037;-87
2023/10/28 05:09:28;;;;;;;16.50;4.75;;;17.40;99.90;;;;;;4847158;29;20116;-88
2023/10/28 05:11:56;;;;;;;18.08;5.18;;;17.40;99.90;;;;;;4847317;29;20476;-87
2023/10/28 05:14:23;;;;;;;24.08;5.15;;;17.40;99.90;;;;;;4847220;29;20037;-86
2023/10/28 05:16:52;;;;;;;15.35;5.32;;;17.50;99.90;;;;;;4847023;29;20488;-87
2023/10/28 05:19:22;;;;;;;26.30;5.65;;;17.60;99.90;;;;;;4847007;29;20071;-87
2023/10/28 05:21:49;;;;;;;15.95;4.78;;;17.50;99.90;;;;;;4868079;29;20077;-87
2023/10/28 05:24:17;;;;;;;14.35;5.18;;;17.50;99.90;;;;;;4884037;29;20112;-89
2023/10/28 05:26:43;;;;;;;17.48;5.22;;;17.50;99.90;;;;;;4893826;29;20067;-88
2023/10/28 05:29:10;;;;;;;13.98;5.85;;;17.50;99.90;;;;;;4903438;29;20036;-87
2023/10/28 05:31:37;;;;;;;20.15;5.68;;;17.50;99.90;;;;;;4887712;29;20029;-88
2023/10/28 05:34:03;;;;;;;21.05;5.30;;;17.50;99.90;;;;;;4902150;29;20393;-89
2023/10/28 05:36:29;;;;;;;23.42;6.38;;;17.70;99.90;;;;;;4899475;29;20025;-88
2023/10/28 05:38:59;;;;;;;21.27;5.90;;;17.70;99.90;;;;;;4884156;29;20397;-86
2023/10/28 05:41:25;;;;;;;20.10;5.10;;;17.80;99.90;;;;;;4884117;29;20065;-87
2023/10/28 05:43:52;;;;;;;19.90;5.45;;;17.80;99.90;;;;;;4870683;29;20141;-88
2023/10/28 05:46:22;;;;;;;17.20;5.68;;;17.90;99.90;;;;;;4902454;29;20167;-87
2023/10/28 05:48:56;;;;;;;17.80;5.65;;;17.90;99.90;;;;;;4886362;29;20494;-87
2023/10/28 05:51:23;;;;;;;19.90;6.60;;;18.00;99.90;;;;;;4902187;29;20091;-87
2023/10/28 05:53:50;;;;;;;22.25;6.45;;;18.00;99.90;;;;;;4901882;29;20044;-87
2023/10/28 05:56:17;;;;;;;18.45;6.25;;;18.20;99.90;;;;;;4917664;29;20024;-87
2023/10/28 05:58:44;;;;;;;21.23;6.80;;;18.50;99.90;;;;;;4902239;29;20032;-87
2023/10/28 06:01:14;;;;;;;19.25;5.55;;;18.50;99.90;;;;;;4902162;29;20035;-87
2023/10/28 06:03:40;;;;;;;10.57;5.95;;;18.70;99.90;;;;;;4901545;29;20039;-87
2023/10/28 06:06:07;;;;;;;17.10;7.03;;;18.90;99.90;;;;;;4898610;29;20033;-89
2023/10/28 06:08:33;;;;;;;14.02;6.60;;;19.10;99.90;;;;;;4901877;29;20032;-88
2023/10/28 06:11:00;;;;;;;11.77;6.93;;;19.30;99.90;;;;;;4886595;29;20028;-87
2023/10/28 06:13:26;;;;;;;13.70;8.02;;;19.50;99.90;;;;;;4901894;29;20115;-88
2023/10/28 06:15:52;;;;;;;16.70;10.40;;;19.80;99.90;;;;;;4901757;29;20039;-89
2023/10/28 06:18:19;;;;;;;16.50;12.05;;;20.10;99.90;;;;;;4902397;29;20091;-88
2023/10/28 06:20:47;;;;;;;16.60;13.38;;;20.50;99.90;;;;;;4901655;29;20036;-88
2023/10/28 06:23:15;;;;;;;21.33;15.23;;;20.60;99.90;;;;;;4901721;29;20072;-87
2023/10/28 06:25:44;;;;;;;18.35;15.80;;;20.80;99.90;;;;;;4901484;29;20043;-87
2023/10/28 06:28:10;;;;;;;23.98;15.73;;;20.90;99.90;;;;;;4901558;29;20039;-88
2023/10/28 06:30:48;;;;;;;25.70;16.23;;;20.90;99.90;;;;;;4885676;29;20032;-88
2023/10/28 06:33:15;;;;;;;18.05;16.33;;;20.90;99.90;;;;;;4901416;29;20020;-87
2023/10/28 06:35:41;;;;;;;31.73;16.80;;;20.90;99.90;;;;;;4901533;29;20031;-90
2023/10/28 06:38:08;;;;;;;19.50;16.15;;;20.90;99.90;;;;;;4885899;29;20036;-89
2023/10/28 06:40:38;;;;;;;18.48;15.98;;;20.90;99.90;;;;;;4901117;29;20512;-89
2023/10/28 06:43:05;;;;;;;23.10;15.80;;;21.00;99.90;;;;;;4885379;29;20044;-86
2023/10/28 06:45:31;;;;;;;20.92;16.38;;;21.10;99.90;;;;;;4888372;29;20039;-86
2023/10/28 06:47:58;;;;;;;18.92;17.00;;;21.40;99.90;;;;;;4901604;29;20055;-85
2023/10/28 06:50:24;;;;;;;19.85;17.40;;;21.60;99.90;;;;;;4916643;29;20198;-87
2023/10/28 06:52:50;;;;;;;20.00;17.98;;;21.80;99.90;;;;;;4900495;29;20040;-84
2023/10/28 06:55:18;;;;;;;22.10;18.77;;;21.90;99.90;;;;;;4916764;29;20061;-83
2023/10/28 06:57:47;;;;;;;21.45;19.23;;;22.20;99.90;;;;;;4900911;29;20032;-84
2023/10/28 07:00:15;;;;;;;22.50;20.10;;;22.60;99.90;;;;;;4881775;29;20122;-85
2023/10/28 07:02:43;;;;;;;23.50;21.42;;;23.10;99.90;;;;;;4898282;29;20025;-84
2023/10/28 07:05:10;;;;;;;29.13;21.73;;;23.60;99.90;;;;;;4909435;29;20028;-85
2023/10/28 07:07:37;;;;;;;27.98;20.30;;;24.00;99.90;;;;;;4881386;29;20089;-84
2023/10/28 07:10:07;;;;;;;22.92;21.00;;;24.40;99.90;;;;;;4881611;29;20092;-84
2023/10/28 07:12:34;;;;;;;23.35;21.20;;;24.50;99.90;;;;;;4898406;29;20031;-83
2023/10/28 07:15:00;;;;;;;25.35;22.23;;;24.70;99.90;;;;;;4907181;29;20448;-84
2023/10/28 07:17:28;;;;;;;25.40;23.17;;;24.80;99.90;;;;;;4897325;29;20550;-85
2023/10/28 07:19:58;;;;;;;26.25;23.77;;;25.10;99.90;;;;;;4884317;29;20540;-83
2023/10/28 07:22:27;;;;;;;25.70;23.45;;;25.30;99.90;;;;;;4916332;29;20048;-83
2023/10/28 07:24:54;;;;;;;27.40;24.77;;;25.70;99.90;;;;;;4884136;29;20540;-85
2023/10/28 07:27:21;;;;;;;26.92;24.40;;;25.70;99.90;;;;;;4899551;29;20055;-84
2023/10/28 07:29:50;;;;;;;30.73;25.13;;;25.80;99.90;;;;;;4916581;29;20076;-83
2023/10/28 07:32:18;;;;;;;27.63;24.90;;;25.80;99.90;;;;;;4916545;29;20024;-81
2023/10/28 07:34:45;;;;;;;28.05;25.50;;;25.50;99.90;;;;;;4916068;29;20029;-88
2023/10/28 07:37:13;;;;;;;26.65;24.27;;;25.50;99.90;;;;;;4899079;29;20054;-84
2023/10/28 07:39:41;;;;;;;26.75;24.27;;;25.70;99.90;;;;;;4899556;29;20096;-82
2023/10/28 07:42:08;;;;;;;27.52;24.77;;;25.90;99.90;;;;;;4916769;29;20036;-86
2023/10/28 07:44:34;;;;;;;27.10;24.70;;;25.90;99.90;;;;;;4900067;29;20059;-84
2023/10/28 07:47:00;;;;;;;27.35;25.10;;;25.90;99.90;;;;;;4900498;29;20028;-87
2023/10/28 07:49:27;;;;;;;28.52;25.83;;;26.10;99.90;;;;;;4885182;29;20021;-86
2023/10/28 07:51:54;;;;;;;28.23;25.35;;;26.20;99.90;;;;;;4900464;29;20083;-86
2023/10/28 07:54:21;;;;;;;27.40;25.23;;;26.60;99.90;;;;;;4885175;29;20032;-84
2023/10/28 07:56:47;;;;;;;27.95;25.75;;;27.00;99.90;;;;;;4903290;29;20028;-85
2023/10/28 07:59:14;;;;;;;28.58;25.98;;;27.20;99.90;;;;;;4903470;29;20107;-85
2023/10/28 08:01:41;;;;;;;27.88;25.50;;;27.10;99.90;;;;;;4902975;29;20047;-85
2023/10/28 08:04:08;;;;;;;27.83;25.40;;;27.00;99.90;;;;;;4916645;29;20055;-87
2023/10/28 08:06:35;;;;;;;27.80;25.42;;;26.80;99.90;;;;;;4893969;29;20039;-85
2023/10/28 08:09:05;;;;;;;28.52;25.88;;;26.60;99.90;;;;;;4893635;29;20103;-87
2023/10/28 08:11:32;;;;;;;27.60;25.02;;;26.80;99.90;;;;;;4909133;29;20487;-86
2023/10/28 08:13:59;;;;;;;28.00;25.90;;;27.00;99.90;;;;;;4911004;29;20020;-86
2023/10/28 08:16:26;;;;;;;28.45;25.70;;;27.20;99.90;;;;;;4888784;29;20032;-85
2023/10/28 08:18:53;;;;;;;28.60;25.75;;;27.10;99.90;;;;;;4901722;29;20056;-87
2023/10/28 08:21:20;;;;;;;28.10;25.70;;;27.20;99.90;;;;;;4892795;29;20051;-87
2023/10/28 08:23:47;;;;;;;28.35;25.67;;;27.10;99.90;;;;;;4861358;29;20048;-86
2023/10/28 08:26:17;;;;;;;28.17;25.33;;;27.00;99.90;;;;;;4875709;29;20036;-86
2023/10/28 08:28:46;;;;;;;27.98;25.40;;;27.00;99.90;;;;;;4862354;29;20057;-84
2023/10/28 08:31:16;;;;;;;28.27;25.33;;;26.70;99.90;;;;;;4862408;29;20392;-86
2023/10/28 08:33:44;;;;;;;27.45;24.88;;;26.50;99.90;;;;;;4873881;29;20506;-87
2023/10/28 08:36:11;;;;;;;26.50;24.00;;;26.20;99.90;;;;;;4872491;29;20029;-85
2023/10/28 08:38:38;;;;;;;26.70;24.13;;;26.10;99.90;;;;;;4871739;29;20384;-85
2023/10/28 08:41:08;;;;;;;27.60;24.95;;;26.00;99.90;;;;;;4847043;29;20025;-86
2023/10/28 08:43:35;;;;;;;27.88;25.23;;;26.00;99.90;;;;;;4846795;29;20495;-83
2023/10/28 08:46:04;;;;;;;27.38;24.90;;;26.00;99.90;;;;;;4863701;29;20060;-83
2023/10/28 08:48:33;;;;;;;27.25;24.73;;;26.00;99.90;;;;;;4881403;29;20032;-82
2023/10/28 08:51:00;;;;;;;27.60;25.13;;;25.90;99.90;;;;;;4881542;29;20033;-84
2023/10/28 08:53:28;;;;;;;26.50;24.20;;;25.90;99.90;;;;;;4880598;29;20434;-83
2023/10/28 08:56:00;;;;;;;27.13;24.77;;;25.90;99.90;;;;;;4895334;29;20470;-84
2023/10/28 08:58:28;;;;;;;28.60;24.95;;;25.70;99.90;;;;;;4877045;29;20034;-83
2023/10/28 09:01:01;;;;;;;27.55;25.30;;;25.60;99.90;;;;;;4861726;29;20029;-84
2023/10/28 09:03:30;;;;;;;27.80;25.40;;;25.60;99.90;;;;;;4879350;29;20427;-84
2023/10/28 09:05:59;;;;;;;27.33;25.17;;;25.40;99.90;;;;;;4879455;29;20036;-84
2023/10/28 09:08:27;;;;;;;27.00;24.23;;;25.40;99.90;;;;;;4880075;29;20400;-84
2023/10/28 09:10:54;;;;;;;26.20;23.88;;;25.40;99.90;;;;;;4879492;29;20033;-86
2023/10/28 09:13:20;;;;;;;26.00;23.58;;;25.40;99.90;;;;;;4869037;29;20033;-83
2023/10/28 09:15:47;;;;;;;26.42;23.70;;;25.50;99.90;;;;;;4871705;29;20384;-83
2023/10/28 09:18:13;;;;;;;26.25;23.90;;;25.50;99.90;;;;;;4870654;29;20029;-84
2023/10/28 09:20:41;;;;;;;27.10;24.23;;;25.60;99.90;;;;;;4871367;29;20024;-84
2023/10/28 09:23:08;;;;;;;26.08;23.90;;;25.50;99.90;;;;;;4873288;29;20049;-84
2023/10/28 09:25:36;;;;;;;26.08;23.83;;;25.40;99.90;;;;;;4869317;29;20403;-84
2023/10/28 09:28:07;;;;;;;27.17;24.35;;;25.30;99.90;;;;;;4878610;29;20029;-83
2023/10/28 09:30:44;;;;;;;26.00;23.73;;;25.20;99.90;;;;;;4870227;29;20436;-83
2023/10/28 09:33:12;;;;;;;26.15;24.02;;;25.30;99.90;;;;;;4841109;29;20037;-84
2023/10/28 09:35:43;;;;;;;27.48;24.42;;;25.30;99.90;;;;;;4867157;29;20080;-85
2023/10/28 09:38:11;;;;;;;25.80;23.75;;;25.20;99.90;;;;;;4868891;29;20038;-85
2023/10/28 09:40:39;;;;;;;28.02;24.67;;;25.30;99.90;;;;;;4882945;29;20021;-83
2023/10/28 09:43:09;;;;;;;26.40;23.70;;;25.20;99.90;;;;;;4854422;29;20480;-82
2023/10/28 09:45:35;;;;;;;26.73;23.95;;;25.20;99.90;;;;;;4868853;29;20037;-83
2023/10/28 09:48:11;;;;;;;27.52;25.00;;;25.10;99.90;;;;;;4868852;29;20028;-84
2023/10/28 09:50:44;;;;;;;26.50;24.00;;;25.10;99.90;;;;;;4882909;29;20161;-84
2023/10/28 09:53:14;;;;;;;27.67;25.30;;;25.10;99.90;;;;;;4869371;29;20377;-81
2023/10/28 09:55:43;;;;;;;27.35;24.58;;;25.20;99.90;;;;;;4870484;29;20033;-84
2023/10/28 09:58:20;;;;;;;26.60;24.55;;;25.40;99.90;;;;;;4876114;29;20056;-89
2023/10/28 10:00:48;;;;;;;27.20;24.85;;;25.50;99.90;;;;;;4860865;29;20040;-84
2023/10/28 10:03:42;;;;;;;29.10;26.42;;;25.60;99.90;;;;;;4860310;29;20098;-83
2023/10/28 10:06:09;;;;;;;26.45;24.13;;;25.90;99.90;;;;;;4879084;29;20743;-84
2023/10/28 10:08:36;;;;;;;26.88;24.48;;;25.90;99.90;;;;;;4894845;29;20104;-84
2023/10/28 10:11:06;;;;;;;26.38;24.08;;;25.90;99.90;;;;;;4880062;29;20032;-83
2023/10/28 10:13:43;;;;;;;27.13;24.63;;;25.90;99.90;;;;;;4878269;29;20048;-83
2023/10/28 10:16:36;;;;;;;26.08;23.77;;;26.20;99.90;;;;;;4868655;29;20033;-84
2023/10/28 10:19:10;;;;;;;27.23;24.50;;;26.00;99.90;;;;;;4859892;29;20037;-84
2023/10/28 10:21:37;;;;;;;27.23;24.58;;;26.20;99.90;;;;;;4878567;29;20033;-84
2023/10/28 10:24:05;;;;;;;27.20;24.45;;;26.00;99.90;;;;;;4896047;29;20058;-85
2023/10/28 10:26:33;;;;;;;27.55;24.80;;;25.90;99.90;;;;;;4898069;29;20028;-86
2023/10/28 10:29:03;;;;;;;27.25;24.83;;;26.00;99.90;;;;;;4876498;29;20032;-87
2023/10/28 10:31:33;;;;;;;26.52;24.13;;;26.00;99.90;;;;;;4864076;29;20036;-88
2023/10/28 10:34:06;;;;;;;27.35;24.58;;;25.90;99.90;;;;;;4865129;29;20028;-88
2023/10/28 10:36:41;;;;;;;27.27;24.70;;;25.80;99.90;;;;;;4868417;29;20028;-87
2023/10/28 10:39:16;;;;;;;34.92;31.42;;;25.80;99.90;;;;;;4913492;29;20036;-86
2023/10/28 10:41:49;;;;;;;46.55;35.75;;;25.90;99.90;;;;;;4897948;29;20043;-85
2023/10/28 10:44:25;;;;;;;32.08;28.65;;;26.00;99.90;;;;;;4896959;29;20048;-87
2023/10/28 10:46:58;;;;;;;32.75;29.25;;;26.10;99.90;;;;;;4911353;29;20040;-86
2023/10/28 10:49:31;;;;;;;47.30;37.72;;;26.10;99.90;;;;;;4897742;29;20036;-87
2023/10/28 10:52:05;;;;;;;46.53;38.17;;;26.10;99.90;;;;;;4897877;29;20044;-87
2023/10/28 10:54:34;;;;;;;31.58;28.52;;;26.00;99.90;;;;;;4882479;29;20036;-86
2023/10/28 10:57:02;;;;;;;37.78;34.08;;;26.00;99.90;;;;;;4895742;29;20068;-88
2023/10/28 10:59:30;;;;;;;30.17;27.75;;;26.00;99.90;;;;;;4897800;29;20032;-86
2023/10/28 11:01:57;;;;;;;29.63;27.20;;;25.90;99.90;;;;;;4882602;29;20049;-88
2023/10/28 11:04:34;;;;;;;35.88;32.25;;;25.90;99.90;;;;;;4897649;29;20092;-86
2023/10/28 11:07:04;;;;;;;29.58;26.60;;;25.90;99.90;;;;;;4896883;29;20498;-87
2023/10/28 11:09:32;;;;;;;30.92;28.15;;;26.00;99.90;;;;;;4881653;29;20060;-86
2023/10/28 11:11:59;;;;;;;31.05;28.27;;;25.80;99.90;;;;;;4896719;29;20035;-87
2023/10/28 11:14:25;;;;;;;29.95;26.63;;;25.70;99.90;;;;;;4880995;29;20072;-87
2023/10/28 11:16:52;;;;;;;29.20;26.50;;;25.70;99.90;;;;;;4896675;29;20055;-86
2023/10/28 11:19:19;;;;;;;28.63;25.83;;;25.50;99.90;;;;;;4896953;29;20064;-86
2023/10/28 11:21:49;;;;;;;28.20;25.83;;;25.40;99.90;;;;;;4897471;29;20462;-88
2023/10/28 11:24:16;;;;;;;28.23;25.55;;;25.30;99.90;;;;;;4900200;29;20112;-87
2023/10/28 11:26:46;;;;;;;26.98;24.98;;;25.50;99.90;;;;;;4886116;29;20031;-86
2023/10/28 11:29:16;;;;;;;27.27;25.08;;;25.60;99.90;;;;;;4887337;29;20043;-86
2023/10/28 11:31:43;;;;;;;29.58;26.65;;;25.60;99.90;;;;;;4904172;29;20072;-86
2023/10/28 11:34:09;;;;;;;28.00;25.50;;;25.40;99.90;;;;;;4904585;29;20114;-86
2023/10/28 11:36:38;;;;;;;26.95;24.65;;;25.50;99.90;;;;;;4886447;29;20024;-87
2023/10/28 11:39:12;;;;;;;27.92;25.45;;;25.60;99.90;;;;;;4887113;29;20028;-87
2023/10/28 11:41:42;;;;;;;27.83;25.35;;;25.50;99.90;;;;;;4903850;29;20115;-82
2023/10/28 11:44:17;;;;;;;27.63;25.48;;;25.60;99.90;;;;;;4899897;29;20392;-84
2023/10/28 11:47:01;;;;;;;28.50;26.17;;;25.60;99.90;;;;;;4895571;29;20126;-92
2023/10/28 11:49:33;;;;;;;28.10;25.90;;;25.80;99.90;;;;;;4899676;29;20025;-90
2023/10/28 11:52:00;;;;;;;29.13;26.45;;;25.90;99.90;;;;;;4894698;29;20052;-85
2023/10/28 11:54:27;;;;;;;27.63;25.48;;;25.70;99.90;;;;;;4897373;29;20367;-90
2023/10/28 11:56:53;;;;;;;27.50;25.20;;;25.40;99.90;;;;;;4892653;29;20025;-88
2023/10/28 11:59:20;;;;;;;28.60;25.83;;;25.20;99.90;;;;;;4890648;29;20088;-88
2023/10/28 12:01:47;;;;;;;26.60;24.23;;;25.40;99.90;;;;;;4895856;29;20551;-90
2023/10/28 12:04:14;;;;;;;26.13;23.83;;;25.60;99.90;;;;;;4903086;29;20040;-89
2023/10/28 12:06:42;;;;;;;25.45;23.40;;;25.60;99.90;;;;;;4900655;29;20466;-88
2023/10/28 12:09:12;;;;;;;25.08;23.00;;;25.60;99.90;;;;;;4899477;29;20024;-87
2023/10/28 12:11:38;;;;;;;26.15;23.90;;;25.50;99.90;;;;;;4895189;29;20039;-88
2023/10/28 12:14:07;;;;;;;30.98;25.10;;;25.60;99.90;;;;;;4893106;29;20024;-88
2023/10/28 12:16:38;;;;;;;25.85;23.60;;;25.60;99.90;;;;;;4903579;29;20031;-90
2023/10/28 12:19:08;;;;;;;25.45;23.45;;;25.40;99.90;;;;;;4891787;29;20028;-90
2023/10/28 12:21:35;;;;;;;26.02;23.63;;;25.30;99.90;;;;;;4903930;29;20070;-90
2023/10/28 12:24:03;;;;;;;27.30;24.70;;;25.20;99.90;;;;;;4903391;29;20135;-91
2023/10/28 12:26:30;;;;;;;25.80;23.70;;;25.20;99.90;;;;;;4888184;29;20020;-90
2023/10/28 12:28:56;;;;;;;26.52;24.15;;;25.20;99.90;;;;;;4898090;29;20526;-88
2023/10/28 12:31:23;;;;;;;26.35;24.05;;;25.10;99.90;;;;;;4892649;29;20032;-90
2023/10/28 12:33:51;;;;;;;25.40;23.40;;;25.10;99.90;;;;;;4885163;29;20066;-90
2023/10/28 12:36:20;;;;;;;26.75;24.08;;;25.10;99.90;;;;;;4882426;29;20128;-89
2023/10/28 12:38:47;;;;;;;25.60;23.52;;;25.20;99.90;;;;;;4902881;29;20025;-88